Time;durP1;ratioP1;P1;durP2;ratioP2;P2;SDS_P1;SDS_P2;PMS_P1;PMS_P2;Temp;Humidity;BMP_temperature;BMP_pressure;BME280_temperature;BME280_humidity;BME280_pressure;Samples;Min_cycle;Max_cycle;Signal;HPM_P1;HPM_P2
2022/04/20 00:00:36;;;;;;;;;;;;;;;12.92;50.49;101191.91;4418626;32;19953;-71
2022/04/20 00:03:02;;;;;;;;;;;;;;;12.81;50.82;101187.78;4420309;32;20003;-70
2022/04/20 00:05:32;;;;;;;;;;;;;;;12.76;50.93;101194.75;4419816;32;20005;-70
2022/04/20 00:11:43;;;;;;;;;;;;;;;12.56;51.35;101185.59;4415921;32;20657;-70
2022/04/20 00:14:09;;;;;;;;;;;;;;;12.57;51.29;101178.72;4414901;32;20628;-70
2022/04/20 00:16:35;;;;;;;;;;;;;;;12.61;51.58;101178.63;4416585;32;20094;-70
2022/04/20 00:19:01;;;;;;;;;;;;;;;12.58;51.82;101174.62;4414909;32;19977;-70
2022/04/20 00:21:27;;;;;;;;;;;;;;;12.51;51.84;101177.66;4415352;32;20415;-70
2022/04/20 00:23:54;;;;;;;;;;;;;;;12.51;51.78;101168.38;4414997;32;20294;-70
2022/04/20 00:26:20;;;;;;;;;;;;;;;12.36;52.25;101165.13;4414829;32;19989;-70
2022/04/20 00:28:45;;;;;;;;;;;;;;;12.91;50.60;101164.91;4415517;32;20036;-70
2022/04/20 00:31:11;;;;;;;;;;;;;;;12.95;50.20;101171.25;4418593;32;19972;-70
2022/04/20 00:33:37;;;;;;;;;;;;;;;12.91;50.12;101164.91;4419286;32;20035;-70
2022/04/20 00:36:03;;;;;;;;;;;;;;;12.51;51.19;101163.53;4420364;32;19980;-70
2022/04/20 00:38:29;;;;;;;;;;;;;;;12.10;52.06;101171.81;4413248;32;20796;-70
2022/04/20 00:40:55;;;;;;;;;;;;;;;12.12;52.08;101163.69;4418968;32;19954;-70
2022/04/20 00:43:21;;;;;;;;;;;;;;;12.12;52.11;101171.38;4419416;32;20031;-70
2022/04/20 00:45:49;;;;;;;;;;;;;;;12.06;52.10;101173.94;4418736;32;20272;-70
2022/04/20 00:48:15;;;;;;;;;;;;;;;12.00;52.07;101167.22;4417192;32;20316;-70
2022/04/20 00:50:42;;;;;;;;;;;;;;;11.95;52.30;101167.72;4420368;32;20013;-70
2022/04/20 00:53:08;;;;;;;;;;;;;;;11.95;52.13;101167.72;4415421;32;19959;-70
2022/04/20 00:55:33;;;;;;;;;;;;;;;11.87;52.07;101181.19;4414250;32;19969;-70
2022/04/20 00:57:59;;;;;;;;;;;;;;;11.88;51.93;101184.81;4416174;32;19957;-70
2022/04/20 01:00:27;;;;;;;;;;;;;;;11.85;52.08;101180.03;4418930;32;19946;-70
2022/04/20 01:02:53;;;;;;;;;;;;;;;11.86;52.12;101188.06;4415351;32;19961;-70
2022/04/20 01:05:19;;;;;;;;;;;;;;;11.81;52.26;101184.94;4418948;32;19985;-70
2022/04/20 01:07:45;;;;;;;;;;;;;;;11.72;52.45;101190.41;4418518;32;19945;-70
2022/04/20 01:10:11;;;;;;;;;;;;;;;11.71;52.48;101191.62;4418173;32;19954;-70
2022/04/20 01:12:37;;;;;;;;;;;;;;;11.64;52.37;101188.97;4415746;32;20587;-70
2022/04/20 01:15:03;;;;;;;;;;;;;;;11.60;52.76;101185.41;4417839;32;20230;-70
2022/04/20 01:17:28;;;;;;;;;;;;;;;11.59;52.88;101178.94;4416502;32;19995;-70
2022/04/20 01:19:54;;;;;;;;;;;;;;;11.60;52.99;101180.53;4417906;32;20321;-70
2022/04/20 01:22:20;;;;;;;;;;;;;;;11.85;52.36;101182.87;4417755;32;19972;-70
2022/04/20 01:24:45;;;;;;;;;;;;;;;11.61;52.94;101167.25;4419162;32;20366;-70
2022/04/20 01:27:11;;;;;;;;;;;;;;;11.59;53.01;101178.16;4419663;32;19989;-70
2022/04/20 01:29:38;;;;;;;;;;;;;;;11.49;53.29;101171.53;4421568;32;20009;-70
2022/04/20 01:32:04;;;;;;;;;;;;;;;11.48;53.34;101171.97;4414994;32;20001;-70
2022/04/20 01:34:30;;;;;;;;;;;;;;;11.39;53.67;101169.69;4418269;32;19987;-70
2022/04/20 01:36:55;;;;;;;;;;;;;;;11.36;53.97;101167.78;4419359;32;20350;-70
2022/04/20 01:39:21;;;;;;;;;;;;;;;11.35;53.81;101165.41;4418286;32;19965;-70
2022/04/20 01:41:47;;;;;;;;;;;;;;;11.37;53.83;101166.53;4419276;32;20327;-70
2022/04/20 01:44:12;;;;;;;;;;;;;;;11.40;53.65;101170.50;4421130;32;20083;-70
2022/04/20 01:46:39;;;;;;;;;;;;;;;11.36;53.78;101166.97;4421671;32;20377;-71
2022/04/20 01:49:04;;;;;;;;;;;;;;;11.35;53.79;101163.34;4425354;32;20369;-70
2022/04/20 01:52:01;;;;;;;;;;;;;;;11.38;53.85;101164.50;4415776;32;19985;-70
2022/04/20 01:54:15;;;;;;;;;;;;;;;11.33;54.16;101165.03;4421918;32;19990;-70
2022/04/20 01:56:41;;;;;;;;;;;;;;;11.36;54.10;101170.59;4418335;32;19981;-70
2022/04/20 01:59:07;;;;;;;;;;;;;;;11.34;54.33;101170.22;4419861;32;20013;-70
2022/04/20 02:04:18;;;;;;;;;;;;;;;11.30;54.78;101171.53;4419691;32;20237;-71
2022/04/20 02:06:46;;;;;;;;;;;;;;;11.32;54.69;101167.03;4418659;32;19986;-70
2022/04/20 02:09:11;;;;;;;;;;;;;;;11.32;54.63;101161.41;4421742;32;20336;-71
2022/04/20 02:11:38;;;;;;;;;;;;;;;11.37;54.53;101163.72;4418778;32;20333;-70
2022/04/20 02:14:03;;;;;;;;;;;;;;;11.36;54.62;101164.16;4415633;32;20288;-70
2022/04/20 02:16:29;;;;;;;;;;;;;;;11.23;55.35;101164.00;4417853;32;20065;-70
2022/04/20 02:18:55;;;;;;;;;;;;;;;11.62;54.26;101166.03;4414987;32;20013;-70
2022/04/20 02:21:20;;;;;;;;;;;;;;;11.39;54.81;101161.25;4414480;32;20378;-70
2022/04/20 02:23:45;;;;;;;;;;;;;;;11.37;54.80;101162.91;4416877;32;20472;-71
2022/04/20 02:26:11;;;;;;;;;;;;;;;11.35;54.99;101159.75;4421609;32;19961;-70
2022/04/20 02:28:36;;;;;;;;;;;;;;;11.44;54.82;101157.94;4418299;32;19993;-70
2022/04/20 02:31:02;;;;;;;;;;;;;;;11.64;54.33;101155.13;4418191;32;20462;-70
2022/04/20 02:33:27;;;;;;;;;;;;;;;11.78;53.95;101154.81;4415862;32;19970;-70
2022/04/20 02:35:53;;;;;;;;;;;;;;;11.79;53.81;101156.41;4421842;32;20045;-70
2022/04/20 02:38:19;;;;;;;;;;;;;;;11.89;53.55;101156.16;4415760;32;19961;-70
2022/04/20 02:40:45;;;;;;;;;;;;;;;12.32;52.28;101157.97;4419157;32;19972;-71
2022/04/20 02:43:11;;;;;;;;;;;;;;;12.32;52.33;101161.59;4419180;32;20016;-71
2022/04/20 02:45:37;;;;;;;;;;;;;;;12.00;53.20;101162.34;4422235;32;19985;-71
2022/04/20 02:48:03;;;;;;;;;;;;;;;12.02;53.11;101161.91;4419597;32;20390;-71
2022/04/20 02:50:29;;;;;;;;;;;;;;;11.90;53.27;101156.94;4421342;32;20418;-70
2022/04/20 02:52:55;;;;;;;;;;;;;;;11.92;52.96;101162.94;4418287;32;19990;-70
2022/04/20 02:55:21;;;;;;;;;;;;;;;11.86;53.38;101167.53;4417760;32;20343;-70
2022/04/20 02:57:46;;;;;;;;;;;;;;;11.91;53.32;101159.31;4417467;32;21070;-71
2022/04/20 03:00:12;;;;;;;;;;;;;;;11.88;53.55;101165.06;4415690;32;20009;-70
2022/04/20 03:02:38;;;;;;;;;;;;;;;11.95;53.36;101159.25;4414248;32;19989;-71
2022/04/20 03:05:05;;;;;;;;;;;;;;;11.92;53.19;101160.13;4421525;32;20171;-71
2022/04/20 03:07:30;;;;;;;;;;;;;;;11.90;53.26;101159.78;4421891;32;20018;-70
2022/04/20 03:09:57;;;;;;;;;;;;;;;11.75;53.83;101159.28;4415721;32;20651;-71
2022/04/20 03:12:23;;;;;;;;;;;;;;;11.67;54.20;101171.16;4418091;32;20011;-70
2022/04/20 03:14:51;;;;;;;;;;;;;;;11.63;54.05;101168.41;4419276;32;19964;-70
2022/04/20 03:17:17;;;;;;;;;;;;;;;11.54;54.43;101161.75;4414319;32;19968;-70
2022/04/20 03:19:42;;;;;;;;;;;;;;;11.85;53.65;101169.53;4420049;32;20261;-70
2022/04/20 03:22:08;;;;;;;;;;;;;;;11.87;53.77;101171.91;4412950;32;19975;-71
2022/04/20 03:24:34;;;;;;;;;;;;;;;11.95;53.58;101164.91;4415459;32;20004;-70
2022/04/20 03:26:59;;;;;;;;;;;;;;;11.96;53.64;101164.47;4415957;32;19994;-70
2022/04/20 03:29:25;;;;;;;;;;;;;;;12.00;53.67;101172.84;4418721;32;19953;-71
2022/04/20 03:31:52;;;;;;;;;;;;;;;12.08;53.71;101174.25;4414816;32;20315;-71
2022/04/20 03:34:18;;;;;;;;;;;;;;;11.79;53.78;101171.28;4416980;32;20020;-71
2022/04/20 03:36:43;;;;;;;;;;;;;;;11.74;54.63;101179.47;4418362;32;20015;-71
2022/04/20 03:39:09;;;;;;;;;;;;;;;11.76;54.50;101177.78;4418452;32;19945;-71
2022/04/20 03:41:34;;;;;;;;;;;;;;;11.78;54.93;101171.72;4414063;32;19968;-71
2022/04/20 03:44:00;;;;;;;;;;;;;;;11.74;54.76;101182.28;4414528;32;19964;-71
2022/04/20 03:46:25;;;;;;;;;;;;;;;11.86;54.53;101176.78;4417418;32;21725;-71
2022/04/20 03:48:51;;;;;;;;;;;;;;;11.77;54.19;101176.59;4423166;32;19995;-71
2022/04/20 03:51:16;;;;;;;;;;;;;;;11.81;54.49;101185.75;4413397;32;19961;-70
2022/04/20 03:53:42;;;;;;;;;;;;;;;11.79;54.41;101179.75;4417173;32;20467;-70
2022/04/20 03:56:07;;;;;;;;;;;;;;;11.82;54.52;101183.72;4418979;32;19950;-70
2022/04/20 03:58:33;;;;;;;;;;;;;;;11.94;54.15;101188.72;4416979;32;19995;-71
2022/04/20 04:00:59;;;;;;;;;;;;;;;11.87;54.64;101181.19;4416322;32;20037;-71
2022/04/20 04:03:24;;;;;;;;;;;;;;;11.84;54.64;101179.25;4416471;32;19988;-70
2022/04/20 04:05:50;;;;;;;;;;;;;;;11.69;55.31;101177.19;4417266;32;19952;-70
2022/04/20 04:08:16;;;;;;;;;;;;;;;11.78;55.16;101177.34;4416140;32;20034;-71
2022/04/20 04:10:41;;;;;;;;;;;;;;;11.88;55.09;101182.75;4420392;32;19961;-71
2022/04/20 04:13:08;;;;;;;;;;;;;;;11.77;55.65;101184.25;4411824;32;20248;-70
2022/04/20 04:15:34;;;;;;;;;;;;;;;11.72;55.61;101179.13;4419780;32;20012;-71
2022/04/20 04:18:00;;;;;;;;;;;;;;;11.75;55.94;101181.06;4419529;32;19967;-71
2022/04/20 04:20:27;;;;;;;;;;;;;;;11.71;56.09;101183.16;4420534;32;19997;-71
2022/04/20 04:22:52;;;;;;;;;;;;;;;11.71;56.35;101183.16;4416833;32;19992;-71
2022/04/20 04:25:18;;;;;;;;;;;;;;;11.69;56.43;101180.00;4416297;32;19954;-71
2022/04/20 04:27:44;;;;;;;;;;;;;;;11.76;56.48;101183.44;4416550;32;19949;-71
2022/04/20 04:30:10;;;;;;;;;;;;;;;11.75;56.65;101184.66;4420973;32;20003;-71
2022/04/20 04:32:35;;;;;;;;;;;;;;;11.94;56.11;101183.06;4416380;32;20336;-71
2022/04/20 04:35:01;;;;;;;;;;;;;;;11.82;56.51;101181.69;4420297;32;20022;-70
2022/04/20 04:37:27;;;;;;;;;;;;;;;11.94;56.10;101180.25;4421243;32;19946;-70
2022/04/20 04:39:52;;;;;;;;;;;;;;;11.93;55.94;101173.78;4416737;32;20340;-71
2022/04/20 04:42:18;;;;;;;;;;;;;;;11.97;56.24;101176.56;4418391;32;19946;-71
2022/04/20 04:44:44;;;;;;;;;;;;;;;11.68;57.08;101175.56;4414416;32;20397;-70
2022/04/20 04:49:55;;;;;;;;;;;;;;;11.57;57.24;101172.94;4418220;32;20481;-70
2022/04/20 04:52:21;;;;;;;;;;;;;;;11.48;57.93;101178.38;4418239;32;19949;-70
2022/04/20 04:54:46;;;;;;;;;;;;;;;11.44;58.23;101176.84;4416729;32;20801;-70
2022/04/20 04:57:12;;;;;;;;;;;;;;;11.44;58.47;101174.84;4417026;32;20031;-70
2022/04/20 04:59:38;;;;;;;;;;;;;;;11.44;58.45;101171.22;4417526;32;20690;-71
2022/04/20 05:02:08;;;;;;;;;;;;;;;11.72;57.91;101179.91;4414690;32;20354;-71
2022/04/20 05:04:34;;;;;;;;;;;;;;;11.53;58.41;101183.50;4417411;32;20182;-70
2022/04/20 05:07:00;;;;;;;;;;;;;;;11.46;58.28;101178.03;4413927;32;19960;-70
2022/04/20 05:09:26;;;;;;;;;;;;;;;11.44;58.63;101186.13;4420434;32;19961;-71
2022/04/20 05:11:52;;;;;;;;;;;;;;;11.33;59.09;101179.09;4413945;32;20039;-71
2022/04/20 05:14:18;;;;;;;;;;;;;;;11.41;58.71;101181.34;4418331;32;20056;-71
2022/04/20 05:16:43;;;;;;;;;;;;;;;11.27;59.31;101184.47;4421279;32;20021;-70
2022/04/20 05:19:10;;;;;;;;;;;;;;;11.24;59.50;101176.88;4424288;32;19975;-71
2022/04/20 05:21:35;;;;;;;;;;;;;;;11.15;59.70;101178.66;4418409;32;19979;-70
2022/04/20 05:24:01;;;;;;;;;;;;;;;11.10;60.10;101168.69;4419141;32;19961;-71
2022/04/20 05:26:27;;;;;;;;;;;;;;;11.12;60.06;101171.06;4420113;32;20398;-71
2022/04/20 05:28:52;;;;;;;;;;;;;;;11.17;60.12;101164.94;4419102;32;19985;-70
2022/04/20 05:31:18;;;;;;;;;;;;;;;11.24;60.16;101176.88;4424214;32;20406;-70
2022/04/20 05:33:43;;;;;;;;;;;;;;;11.25;60.10;101178.44;4417324;32;20015;-70
2022/04/20 05:36:09;;;;;;;;;;;;;;;11.25;59.67;101177.66;4420866;32;19989;-70
2022/04/20 05:41:51;;;;;;;;;;;;;;;11.56;59.16;101176.19;4420370;32;20040;-70
2022/04/20 05:44:08;;;;;;;;;;;;;;;11.69;58.66;101177.97;4415993;32;19954;-70
2022/04/20 05:46:33;;;;;;;;;;;;;;;11.72;58.95;101179.13;4421160;32;19997;-70
2022/04/20 05:48:59;;;;;;;;;;;;;;;11.77;58.49;101181.41;4420116;32;19972;-70
2022/04/20 05:51:25;;;;;;;;;;;;;;;11.93;58.44;101181.47;4420284;32;19961;-70
2022/04/20 05:53:50;;;;;;;;;;;;;;;12.29;56.77;101185.06;4418786;32;19997;-70
2022/04/20 05:56:16;;;;;;;;;;;;;;;12.58;56.02;101179.50;4419732;32;19954;-70
2022/04/20 05:58:41;;;;;;;;;;;;;;;12.37;56.11;101186.47;4420560;32;20366;-70
2022/04/20 06:01:06;;;;;;;;;;;;;;;12.57;56.09;101186.37;4416920;32;20041;-70
2022/04/20 06:03:32;;;;;;;;;;;;;;;12.33;56.76;101182.94;4418404;32;19973;-70
2022/04/20 06:06:00;;;;;;;;;;;;;;;12.46;56.86;101189.50;4417763;32;20284;-70
2022/04/20 06:08:25;;;;;;;;;;;;;;;12.61;56.22;101181.44;4418577;32;19988;-70
2022/04/20 06:10:52;;;;;;;;;;;;;;;12.66;56.16;101180.91;4419271;32;20008;-70
2022/04/20 06:13:17;;;;;;;;;;;;;;;12.91;55.51;101198.00;4415850;32;19949;-70
2022/04/20 06:15:43;;;;;;;;;;;;;;;13.01;55.15;101191.31;4420045;32;19989;-70
2022/04/20 06:18:08;;;;;;;;;;;;;;;13.11;54.52;101184.59;4420314;32;19964;-70
2022/04/20 06:20:34;;;;;;;;;;;;;;;13.25;54.36;101187.81;4420570;32;20354;-70
2022/04/20 06:22:59;;;;;;;;;;;;;;;13.14;54.48;101190.16;4415142;32;19957;-70
2022/04/20 06:25:25;;;;;;;;;;;;;;;13.16;54.90;101184.81;4421037;32;19946;-70
2022/04/20 06:27:50;;;;;;;;;;;;;;;13.15;55.00;101186.06;4423062;32;19993;-70
2022/04/20 06:30:16;;;;;;;;;;;;;;;13.17;54.73;101180.78;4415496;32;20467;-70
2022/04/20 06:32:41;;;;;;;;;;;;;;;13.21;55.01;101181.47;4412754;32;20314;-70
2022/04/20 06:35:07;;;;;;;;;;;;;;;13.32;54.72;101184.00;4411048;32;20801;-70
2022/04/20 06:37:32;;;;;;;;;;;;;;;13.25;54.09;101181.34;4414590;32;19958;-70
2022/04/20 06:39:58;;;;;;;;;;;;;;;13.28;54.66;101183.28;4416091;32;19949;-70
2022/04/20 06:42:23;;;;;;;;;;;;;;;13.52;54.37;101187.44;4414747;32;20362;-71
2022/04/20 06:44:49;;;;;;;;;;;;;;;13.53;54.17;101189.03;4410299;32;20035;-72
2022/04/20 06:47:14;;;;;;;;;;;;;;;13.76;53.76;101195.22;4408337;32;20369;-71
2022/04/20 06:49:42;;;;;;;;;;;;;;;13.87;52.62;101194.91;4410404;32;20043;-71
2022/04/20 07:00:25;;;;;;;;;;;;;;;13.98;52.61;101187.66;4405931;32;19997;-71
2022/04/20 07:02:59;;;;;;;;;;;;;;;14.10;53.12;101200.22;4405139;32;20001;-71
2022/04/20 07:05:24;;;;;;;;;;;;;;;13.80;54.86;101198.72;4408696;32;20397;-71
2022/04/20 07:07:50;;;;;;;;;;;;;;;14.27;53.20;101206.63;4405414;32;19957;-71
2022/04/20 07:10:16;;;;;;;;;;;;;;;14.12;53.41;101199.78;4405580;32;19949;-71
2022/04/20 07:12:42;;;;;;;;;;;;;;;13.96;53.79;101201.47;4401667;32;19981;-71
2022/04/20 07:15:08;;;;;;;;;;;;;;;13.85;54.15;101200.19;4409176;32;19995;-71
2022/04/20 07:17:33;;;;;;;;;;;;;;;13.61;54.90;101204.56;4413745;32;20474;-71
2022/04/20 07:20:01;;;;;;;;;;;;;;;13.60;55.45;101203.75;4410146;32;20399;-71
2022/04/20 07:22:27;;;;;;;;;;;;;;;13.91;54.36;101204.06;4407652;32;20306;-71
2022/04/20 07:24:52;;;;;;;;;;;;;;;14.01;54.41;101208.59;4404094;32;19965;-72
2022/04/20 07:27:18;;;;;;;;;;;;;;;13.96;55.00;101212.78;4408426;32;21361;-71
2022/04/20 07:29:43;;;;;;;;;;;;;;;14.28;53.21;101211.03;4407906;32;20005;-71
2022/04/20 07:32:09;;;;;;;;;;;;;;;14.08;54.23;101212.00;4405922;32;20004;-71
2022/04/20 07:34:36;;;;;;;;;;;;;;;13.97;54.19;101205.09;4401968;32;20003;-71
2022/04/20 07:37:03;;;;;;;;;;;;;;;13.80;54.61;101204.38;4407352;32;20350;-71
2022/04/20 07:39:29;;;;;;;;;;;;;;;13.57;55.13;101206.69;4399555;32;20028;-71
2022/04/20 07:41:54;;;;;;;;;;;;;;;13.65;55.53;101203.22;4408393;32;20780;-72
2022/04/20 07:44:20;;;;;;;;;;;;;;;13.84;54.61;101199.41;4408803;32;20127;-72
2022/04/20 07:46:46;;;;;;;;;;;;;;;13.43;55.92;101190.13;4407212;32;20036;-72
2022/04/20 07:51:58;;;;;;;;;;;;;;;13.84;54.48;101190.91;4404210;32;19973;-70
2022/04/20 07:54:27;;;;;;;;;;;;;;;14.16;53.97;101192.75;4405776;32;20005;-71
2022/04/20 07:56:52;;;;;;;;;;;;;;;14.23;54.02;101192.56;4413045;32;19953;-70
2022/04/20 07:59:18;;;;;;;;;;;;;;;13.88;54.34;101183.13;4412676;32;20425;-71
2022/04/20 08:01:44;;;;;;;;;;;;;;;14.29;53.43;101187.91;4408339;32;20008;-70
2022/04/20 08:04:10;;;;;;;;;;;;;;;14.06;53.37;101182.56;4405267;32;20574;-72
2022/04/20 08:06:36;;;;;;;;;;;;;;;13.85;54.42;101180.41;4410103;32;19991;-71
2022/04/20 08:09:01;;;;;;;;;;;;;;;14.53;52.60;101188.34;4406333;32;20007;-72
2022/04/20 08:11:27;;;;;;;;;;;;;;;14.91;52.13;101186.25;4415609;32;20000;-72
2022/04/20 08:14:24;;;;;;;;;;;;;;;14.60;52.07;101188.12;4410921;32;19997;-72
2022/04/20 08:16:38;;;;;;;;;;;;;;;14.97;50.95;101185.22;4409815;32;20364;-72
2022/04/20 08:19:04;;;;;;;;;;;;;;;15.16;50.32;101191.84;4411775;32;20009;-72
2022/04/20 08:21:29;;;;;;;;;;;;;;;14.72;51.33;101184.47;4407148;32;20007;-72
2022/04/20 08:23:54;;;;;;;;;;;;;;;15.30;50.79;101189.28;4410760;32;20342;-72
2022/04/20 08:26:20;;;;;;;;;;;;;;;15.20;50.46;101186.84;4407950;32;20143;-71
2022/04/20 08:28:46;;;;;;;;;;;;;;;14.90;51.31;101185.47;4403754;32;20572;-71
2022/04/20 08:31:14;;;;;;;;;;;;;;;14.93;51.63;101178.06;4408174;32;19989;-71
2022/04/20 08:33:40;;;;;;;;;;;;;;;15.08;51.31;101179.16;4408744;32;20261;-71
2022/04/20 08:36:06;;;;;;;;;;;;;;;15.39;49.31;101178.06;4408442;32;20017;-71
2022/04/20 08:38:32;;;;;;;;;;;;;;;15.81;48.74;101176.44;4409693;32;20000;-72
2022/04/20 08:40:59;;;;;;;;;;;;;;;15.88;47.79;101176.19;4411023;32;20346;-71
2022/04/20 08:43:25;;;;;;;;;;;;;;;16.41;46.61;101176.88;4406508;32;20027;-70
2022/04/20 08:45:52;;;;;;;;;;;;;;;16.94;45.93;101166.16;4407113;32;20386;-70
2022/04/20 08:48:18;;;;;;;;;;;;;;;16.45;46.46;101176.78;4409454;32;20015;-70
2022/04/20 08:50:44;;;;;;;;;;;;;;;16.71;45.71;101170.38;4407631;32;20016;-70
2022/04/20 08:53:10;;;;;;;;;;;;;;;16.86;46.10;101171.34;4404128;32;20365;-71
2022/04/20 08:55:36;;;;;;;;;;;;;;;17.16;44.90;101173.28;4406510;32;19972;-70
2022/04/20 08:58:04;;;;;;;;;;;;;;;17.26;44.91;101179.75;4409101;32;19965;-71
2022/04/20 09:00:30;;;;;;;;;;;;;;;17.68;42.87;101169.31;4406707;32;19988;-71
2022/04/20 09:02:58;;;;;;;;;;;;;;;17.68;41.72;101170.09;4407601;32;20068;-71
2022/04/20 09:05:24;;;;;;;;;;;;;;;18.16;40.34;101167.44;4402956;32;20482;-71
2022/04/20 09:07:49;;;;;;;;;;;;;;;18.61;40.17;101172.94;4404276;32;20017;-71
2022/04/20 09:10:18;;;;;;;;;;;;;;;18.29;40.52;101168.00;4408725;32;19965;-71
2022/04/20 09:12:46;;;;;;;;;;;;;;;18.32;40.22;101172.75;4403150;32;20452;-72
2022/04/20 09:15:14;;;;;;;;;;;;;;;18.72;40.05;101168.28;4408589;32;20364;-71
2022/04/20 09:17:44;;;;;;;;;;;;;;;18.73;40.26;101163.38;4406952;32;20349;-71
2022/04/20 09:20:15;;;;;;;;;;;;;;;18.69;40.01;101165.63;4406847;32;19981;-72
2022/04/20 09:22:59;;;;;;;;;;;;;;;18.90;39.71;101161.69;4383111;32;20002;-71
2022/04/20 09:25:28;;;;;;;;;;;;;;;19.49;38.49;101157.72;4402441;32;20036;-72
2022/04/20 09:27:54;;;;;;;;;;;;;;;18.88;39.39;101159.31;4408177;32;20347;-71
2022/04/20 09:30:20;;;;;;;;;;;;;;;18.75;40.14;101149.41;4406276;32;20090;-71
2022/04/20 09:32:46;;;;;;;;;;;;;;;19.01;39.25;101150.50;4408198;32;19997;-71
2022/04/20 09:35:13;;;;;;;;;;;;;;;19.79;37.76;101145.06;4410454;32;20016;-72
2022/04/20 09:37:40;;;;;;;;;;;;;;;20.09;37.63;101140.09;4408515;32;19969;-72
2022/04/20 09:40:11;;;;;;;;;;;;;;;20.38;37.39;101137.22;4404774;32;19989;-72
2022/04/20 09:42:36;;;;;;;;;;;;;;;20.91;36.15;101140.56;4408021;32;19981;-72
2022/04/20 09:45:03;;;;;;;;;;;;;;;21.17;35.81;101132.88;4408238;32;21339;-72
2022/04/20 09:50:21;;;;;;;;;;;;;;;21.48;35.73;101128.00;4404542;32;20523;-72
2022/04/20 09:52:47;;;;;;;;;;;;;;;22.21;34.09;101126.62;4408725;32;19981;-72
2022/04/20 09:55:18;;;;;;;;;;;;;;;22.50;33.56;101126.31;4407447;32;20008;-72
2022/04/20 09:57:43;;;;;;;;;;;;;;;22.43;33.10;101123.91;4409623;32;19961;-72
2022/04/20 10:00:10;;;;;;;;;;;;;;;22.90;32.39;101126.00;4407708;32;19998;-73
2022/04/20 10:02:36;;;;;;;;;;;;;;;22.25;33.59;101127.16;4410284;32;20001;-72
2022/04/20 10:05:02;;;;;;;;;;;;;;;22.39;33.67;101115.53;4407305;32;20389;-72
2022/04/20 10:07:28;;;;;;;;;;;;;;;22.95;32.19;101116.66;4413069;32;19977;-72
2022/04/20 10:09:53;;;;;;;;;;;;;;;22.94;32.22;101115.06;4405773;32;20020;-71
2022/04/20 10:12:20;;;;;;;;;;;;;;;23.05;31.86;101112.25;4412253;32;19965;-72
2022/04/20 10:17:43;;;;;;;;;;;;;;;23.58;30.75;101089.16;4412291;32;20363;-73
2022/04/20 10:20:09;;;;;;;;;;;;;;;24.10;30.29;101095.22;4413262;32;19981;-73
2022/04/20 10:22:37;;;;;;;;;;;;;;;24.26;29.93;101095.19;4409964;32;20549;-73
2022/04/20 10:25:05;;;;;;;;;;;;;;;23.89;29.32;101097.56;4411781;32;19975;-73
2022/04/20 10:27:43;;;;;;;;;;;;;;;24.34;28.68;101090.50;4410897;32;20406;-72
2022/04/20 10:30:12;;;;;;;;;;;;;;;24.40;28.70;101088.37;4410320;32;20011;-73
2022/04/20 10:32:46;;;;;;;;;;;;;;;24.49;28.49;101072.94;4401780;32;19995;-73
2022/04/20 10:35:12;;;;;;;;;;;;;;;24.38;28.22;101078.69;4403391;32;20007;-73
2022/04/20 10:37:40;;;;;;;;;;;;;;;24.08;28.02;101075.62;4409902;32;20051;-73
2022/04/20 10:40:21;;;;;;;;;;;;;;;24.65;27.35;101075.78;4407706;32;20327;-70
2022/04/20 10:43:06;;;;;;;;;;;;;;;24.48;27.78;101080.00;4410427;32;20052;-72
2022/04/20 10:45:34;;;;;;;;;;;;;;;24.58;27.49;101067.66;4409349;32;20439;-72
2022/04/20 10:48:00;;;;;;;;;;;;;;;24.19;28.40;101078.50;4407837;32;20000;-72
2022/04/20 10:50:26;;;;;;;;;;;;;;;23.56;29.36;101070.91;4409179;32;20400;-73
2022/04/20 10:52:57;;;;;;;;;;;;;;;23.88;29.16;101066.44;4407275;32;20386;-71
2022/04/20 10:58:22;;;;;;;;;;;;;;;26.16;25.49;101077.19;3946768;32;15850617;-71
2022/04/20 11:01:06;;;;;;;;;;;;;;;26.16;25.49;101077.19;4417888;32;20034;-72
2022/04/20 11:03:51;;;;;;;;;;;;;;;26.06;25.79;101073.91;4413181;32;19993;-71
2022/04/20 11:06:17;;;;;;;;;;;;;;;26.21;25.13;101062.75;4423456;32;20035;-72
2022/04/20 11:08:42;;;;;;;;;;;;;;;26.22;25.73;101061.41;4421995;32;20201;-71
2022/04/20 11:19:49;;;;;;;;;;;;;;;28.14;23.14;101056.41;4425936;32;20035;-71
2022/04/20 11:22:15;;;;;;;;;;;;;;;27.78;23.14;101055.94;4421798;32;20004;-72
2022/04/20 11:24:41;;;;;;;;;;;;;;;28.30;21.63;101055.31;4425949;32;20008;-72
2022/04/20 11:27:07;;;;;;;;;;;;;;;28.41;21.44;101050.06;4421742;32;19997;-71
2022/04/20 11:29:33;;;;;;;;;;;;;;;28.72;21.13;101049.22;4422700;32;20004;-71
2022/04/20 11:31:59;;;;;;;;;;;;;;;28.33;21.36;101036.81;4408941;32;19985;-71
2022/04/20 11:34:26;;;;;;;;;;;;;;;27.60;22.01;101042.31;4417786;32;20470;-71
2022/04/20 11:36:53;;;;;;;;;;;;;;;28.23;21.13;101042.28;4423204;32;20778;-71
2022/04/20 11:39:23;;;;;;;;;;;;;;;27.57;21.52;101031.06;4423309;32;20326;-71
2022/04/20 11:41:50;;;;;;;;;;;;;;;28.12;21.08;101036.69;4422407;32;19978;-72
2022/04/20 11:44:19;;;;;;;;;;;;;;;27.92;21.49;101036.53;4409318;32;20480;-72
2022/04/20 11:46:45;;;;;;;;;;;;;;;28.83;20.35;101022.91;4422201;32;19985;-72
2022/04/20 11:49:11;;;;;;;;;;;;;;;28.34;20.42;101023.91;4417305;32;20000;-72
2022/04/20 11:51:37;;;;;;;;;;;;;;;28.52;19.98;101028.84;4422769;32;20009;-72
2022/04/20 11:54:03;;;;;;;;;;;;;;;28.96;19.53;101016.31;4420517;32;19981;-72
2022/04/20 11:56:33;;;;;;;;;;;;;;;28.63;19.64;101012.00;4423847;32;20414;-72
2022/04/20 11:59:00;;;;;;;;;;;;;;;28.56;19.84;101015.59;4424442;32;20418;-72
2022/04/20 12:01:25;;;;;;;;;;;;;;;27.97;20.47;101013.28;4423505;32;19984;-72
2022/04/20 12:03:51;;;;;;;;;;;;;;;27.95;20.62;101015.19;4420659;32;20378;-72
2022/04/20 12:06:18;;;;;;;;;;;;;;;28.53;19.96;101013.03;4421109;32;20004;-71
2022/04/20 12:08:44;;;;;;;;;;;;;;;28.67;19.54;101026.16;4420581;32;20042;-72
2022/04/20 12:11:11;;;;;;;;;;;;;;;28.80;19.45;101020.34;4412558;32;20380;-71
2022/04/20 12:13:39;;;;;;;;;;;;;;;28.44;19.77;101013.47;4413394;32;19972;-72
2022/04/20 12:16:08;;;;;;;;;;;;;;;28.68;19.48;101004.53;4411016;32;20876;-72
2022/04/20 12:18:35;;;;;;;;;;;;;;;29.53;18.80;101012.34;4409779;32;20490;-72
2022/04/20 12:21:03;;;;;;;;;;;;;;;29.16;19.13;101012.72;4410552;32;19992;-71
2022/04/20 12:23:32;;;;;;;;;;;;;;;28.49;19.49;101007.56;4410496;32;19992;-71
2022/04/20 12:25:58;;;;;;;;;;;;;;;28.72;19.97;101002.09;4410400;32;20436;-72
2022/04/20 12:28:56;;;;;;;;;;;;;;;28.76;19.73;101003.31;4414096;32;19957;-72
2022/04/20 12:31:12;;;;;;;;;;;;;;;27.96;20.22;101005.97;4411858;32;20013;-71
2022/04/20 12:33:41;;;;;;;;;;;;;;;28.76;19.52;100996.75;4411113;32;19989;-71
2022/04/20 12:36:08;;;;;;;;;;;;;;;28.90;19.55;100999.03;4410415;32;20040;-72
2022/04/20 12:38:50;;;;;;;;;;;;;;;28.61;19.58;100997.31;4412202;32;20190;-71
2022/04/20 12:41:36;;;;;;;;;;;;;;;28.03;20.24;100995.81;4413323;32;19958;-71
2022/04/20 12:44:03;;;;;;;;;;;;;;;27.30;20.80;100995.47;4409687;32;19989;-72
2022/04/20 12:46:33;;;;;;;;;;;;;;;27.04;21.02;100995.34;4411041;32;19997;-72
2022/04/20 12:48:59;;;;;;;;;;;;;;;26.80;21.34;100992.50;4414870;32;19977;-71
2022/04/20 12:51:25;;;;;;;;;;;;;;;27.44;20.75;100991.31;4412768;32;20414;-71
2022/04/20 12:53:51;;;;;;;;;;;;;;;27.63;20.66;100994.16;4409851;32;20330;-72
2022/04/20 13:02:02;;;;;;;;;;;;;;;28.13;20.10;100973.81;4409753;32;19958;-70
2022/04/20 13:04:28;;;;;;;;;;;;;;;28.11;19.92;100962.81;4410817;32;20342;-71
2022/04/20 13:06:55;;;;;;;;;;;;;;;27.75;19.67;100970.28;4410454;32;19952;-71
2022/04/20 13:09:20;;;;;;;;;;;;;;;27.28;20.30;100969.25;4413753;32;20335;-71
2022/04/20 13:11:46;;;;;;;;;;;;;;;26.96;20.64;100954.75;4414786;32;19965;-71
2022/04/20 13:14:12;;;;;;;;;;;;;;;27.31;20.10;100962.37;4411106;32;20009;-72
2022/04/20 13:16:37;;;;;;;;;;;;;;;27.16;20.35;100962.06;4410904;32;19975;-72
2022/04/20 13:19:04;;;;;;;;;;;;;;;28.03;19.68;100956.09;4410159;32;20416;-73